sensor_id;sensor_type;location;lat;lon;timestamp;temperature;humidity
57753;DHT22;43583;53.132;6.574;2022-09-02T00:01:42;14.20;99.90
57753;DHT22;43583;53.132;6.574;2022-09-02T00:04:14;14.20;99.90
57753;DHT22;43583;53.132;6.574;2022-09-02T00:06:41;14.20;99.90
57753;DHT22;43583;53.132;6.574;2022-09-02T00:09:09;14.20;99.90
57753;DHT22;43583;53.132;6.574;2022-09-02T00:11:36;14.10;99.90
57753;DHT22;43583;53.132;6.574;2022-09-02T00:14:06;14.10;99.90
57753;DHT22;43583;53.132;6.574;2022-09-02T00:16:32;14.10;99.90
57753;DHT22;43583;53.132;6.574;2022-09-02T00:18:59;14.10;99.90
57753;DHT22;43583;53.132;6.574;2022-09-02T00:21:27;14.00;99.90
57753;DHT22;43583;53.132;6.574;2022-09-02T00:23:52;14.00;99.90
57753;DHT22;43583;53.132;6.574;2022-09-02T00:26:18;14.00;99.90
57753;DHT22;43583;53.132;6.574;2022-09-02T00:28:45;14.00;99.90
57753;DHT22;43583;53.132;6.574;2022-09-02T00:31:12;13.90;99.90
57753;DHT22;43583;53.132;6.574;2022-09-02T00:33:38;13.80;99.90
57753;DHT22;43583;53.132;6.574;2022-09-02T00:36:04;13.70;99.90
57753;DHT22;43583;53.132;6.574;2022-09-02T00:38:32;13.70;99.90
57753;DHT22;43583;53.132;6.574;2022-09-02T00:41:00;13.60;99.90
57753;DHT22;43583;53.132;6.574;2022-09-02T00:43:49;13.60;99.90
57753;DHT22;43583;53.132;6.574;2022-09-02T00:46:17;13.60;99.90
57753;DHT22;43583;53.132;6.574;2022-09-02T00:51:58;13.60;99.90
57753;DHT22;43583;53.132;6.574;2022-09-02T00:54:28;13.50;99.90
57753;DHT22;43583;53.132;6.574;2022-09-02T00:56:54;13.50;99.90
57753;DHT22;43583;53.132;6.574;2022-09-02T00:59:44;13.50;99.90
57753;DHT22;43583;53.132;6.574;2022-09-02T01:02:11;13.40;99.90
57753;DHT22;43583;53.132;6.574;2022-09-02T01:04:38;13.40;99.90
57753;DHT22;43583;53.132;6.574;2022-09-02T01:07:04;13.30;99.90
57753;DHT22;43583;53.132;6.574;2022-09-02T01:09:30;13.30;99.90
57753;DHT22;43583;53.132;6.574;2022-09-02T01:11:58;13.30;99.90
57753;DHT22;43583;53.132;6.574;2022-09-02T01:14:28;13.20;99.90
57753;DHT22;43583;53.132;6.574;2022-09-02T01:16:57;13.30;99.90
57753;DHT22;43583;53.132;6.574;2022-09-02T01:19:37;13.30;99.90
57753;DHT22;43583;53.132;6.574;2022-09-02T01:22:23;13.30;99.90
57753;DHT22;43583;53.132;6.574;2022-09-02T01:24:49;13.20;99.90
57753;DHT22;43583;53.132;6.574;2022-09-02T01:27:17;13.10;99.90
57753;DHT22;43583;53.132;6.574;2022-09-02T01:29:45;13.10;99.90
57753;DHT22;43583;53.132;6.574;2022-09-02T01:32:11;13.10;99.90
57753;DHT22;43583;53.132;6.574;2022-09-02T01:34:36;13.00;99.90
57753;DHT22;43583;53.132;6.574;2022-09-02T01:37:02;12.90;99.90
57753;DHT22;43583;53.132;6.574;2022-09-02T01:39:28;12.90;99.90
57753;DHT22;43583;53.132;6.574;2022-09-02T01:41:53;12.90;99.90
57753;DHT22;43583;53.132;6.574;2022-09-02T01:44:19;12.90;99.90
57753;DHT22;43583;53.132;6.574;2022-09-02T01:46:45;12.90;99.90
57753;DHT22;43583;53.132;6.574;2022-09-02T01:49:10;12.90;99.90
57753;DHT22;43583;53.132;6.574;2022-09-02T01:51:36;12.80;99.90
57753;DHT22;43583;53.132;6.574;2022-09-02T01:54:02;12.70;99.90
57753;DHT22;43583;53.132;6.574;2022-09-02T01:56:28;12.70;99.90
57753;DHT22;43583;53.132;6.574;2022-09-02T01:58:54;12.70;99.90
57753;DHT22;43583;53.132;6.574;2022-09-02T02:01:19;12.70;99.90
57753;DHT22;43583;53.132;6.574;2022-09-02T02:03:45;12.70;99.90
57753;DHT22;43583;53.132;6.574;2022-09-02T02:06:14;12.60;99.90
57753;DHT22;43583;53.132;6.574;2022-09-02T02:08:41;12.60;99.90
57753;DHT22;43583;53.132;6.574;2022-09-02T02:11:07;12.70;99.90
57753;DHT22;43583;53.132;6.574;2022-09-02T02:13:33;12.70;99.90
57753;DHT22;43583;53.132;6.574;2022-09-02T02:16:00;12.70;99.90
57753;DHT22;43583;53.132;6.574;2022-09-02T02:18:25;12.70;99.90
57753;DHT22;43583;53.132;6.574;2022-09-02T02:20:51;12.70;99.90
57753;DHT22;43583;53.132;6.574;2022-09-02T02:23:17;12.60;99.90
57753;DHT22;43583;53.132;6.574;2022-09-02T02:25:42;12.60;99.90
57753;DHT22;43583;53.132;6.574;2022-09-02T02:28:08;12.60;99.90
57753;DHT22;43583;53.132;6.574;2022-09-02T02:30:34;12.60;99.90
57753;DHT22;43583;53.132;6.574;2022-09-02T02:32:59;12.60;99.90
57753;DHT22;43583;53.132;6.574;2022-09-02T02:35:26;12.60;99.90
57753;DHT22;43583;53.132;6.574;2022-09-02T02:37:52;12.50;99.90
57753;DHT22;43583;53.132;6.574;2022-09-02T02:40:20;12.60;99.90
57753;DHT22;43583;53.132;6.574;2022-09-02T02:42:47;12.50;99.90
57753;DHT22;43583;53.132;6.574;2022-09-02T02:45:14;12.50;99.90
57753;DHT22;43583;53.132;6.574;2022-09-02T02:47:41;12.50;99.90
57753;DHT22;43583;53.132;6.574;2022-09-02T02:50:11;12.50;99.90
57753;DHT22;43583;53.132;6.574;2022-09-02T02:52:39;12.50;99.90
57753;DHT22;43583;53.132;6.574;2022-09-02T02:55:07;12.50;99.90
57753;DHT22;43583;53.132;6.574;2022-09-02T02:57:33;12.40;99.90
57753;DHT22;43583;53.132;6.574;2022-09-02T03:00:11;12.40;99.90
57753;DHT22;43583;53.132;6.574;2022-09-02T03:02:38;12.40;99.90
57753;DHT22;43583;53.132;6.574;2022-09-02T03:05:05;12.40;99.90
57753;DHT22;43583;53.132;6.574;2022-09-02T03:07:31;12.40;99.90
57753;DHT22;43583;53.132;6.574;2022-09-02T03:09:56;12.30;99.90
57753;DHT22;43583;53.132;6.574;2022-09-02T03:12:22;12.30;99.90
57753;DHT22;43583;53.132;6.574;2022-09-02T03:14:48;12.30;99.90
57753;DHT22;43583;53.132;6.574;2022-09-02T03:17:14;12.20;99.90
57753;DHT22;43583;53.132;6.574;2022-09-02T03:19:40;12.20;99.90
57753;DHT22;43583;53.132;6.574;2022-09-02T03:22:06;12.20;99.90
57753;DHT22;43583;53.132;6.574;2022-09-02T03:24:32;12.20;99.90
57753;DHT22;43583;53.132;6.574;2022-09-02T03:26:57;12.20;99.90
57753;DHT22;43583;53.132;6.574;2022-09-02T03:29:23;12.20;99.90
57753;DHT22;43583;53.132;6.574;2022-09-02T03:31:48;12.20;99.90
57753;DHT22;43583;53.132;6.574;2022-09-02T03:34:14;12.10;99.90
57753;DHT22;43583;53.132;6.574;2022-09-02T03:36:40;12.10;99.90
57753;DHT22;43583;53.132;6.574;2022-09-02T03:39:09;12.10;99.90
57753;DHT22;43583;53.132;6.574;2022-09-02T03:41:35;12.10;99.90
57753;DHT22;43583;53.132;6.574;2022-09-02T03:44:01;12.00;99.90
57753;DHT22;43583;53.132;6.574;2022-09-02T03:46:27;12.00;99.90
57753;DHT22;43583;53.132;6.574;2022-09-02T03:48:52;12.00;99.90
57753;DHT22;43583;53.132;6.574;2022-09-02T03:51:22;12.00;99.90
57753;DHT22;43583;53.132;6.574;2022-09-02T03:53:48;11.90;99.90
57753;DHT22;43583;53.132;6.574;2022-09-02T03:56:15;11.90;99.90
57753;DHT22;43583;53.132;6.574;2022-09-02T03:58:42;11.90;99.90
57753;DHT22;43583;53.132;6.574;2022-09-02T04:01:13;11.90;99.90
57753;DHT22;43583;53.132;6.574;2022-09-02T04:03:40;11.90;99.90
57753;DHT22;43583;53.132;6.574;2022-09-02T04:06:08;11.90;99.90
57753;DHT22;43583;53.132;6.574;2022-09-02T04:08:36;11.90;99.90
57753;DHT22;43583;53.132;6.574;2022-09-02T04:11:09;11.90;99.90
57753;DHT22;43583;53.132;6.574;2022-09-02T04:13:36;11.90;99.90
57753;DHT22;43583;53.132;6.574;2022-09-02T04:16:13;11.80;99.90
57753;DHT22;43583;53.132;6.574;2022-09-02T04:18:39;11.80;99.90
57753;DHT22;43583;53.132;6.574;2022-09-02T04:21:06;11.80;99.90
57753;DHT22;43583;53.132;6.574;2022-09-02T04:23:32;11.80;99.90
57753;DHT22;43583;53.132;6.574;2022-09-02T04:26:01;11.70;99.90
57753;DHT22;43583;53.132;6.574;2022-09-02T04:28:27;11.70;99.90
57753;DHT22;43583;53.132;6.574;2022-09-02T04:30:52;11.70;99.90
57753;DHT22;43583;53.132;6.574;2022-09-02T04:33:18;11.70;99.90
57753;DHT22;43583;53.132;6.574;2022-09-02T04:35:45;11.70;99.90
57753;DHT22;43583;53.132;6.574;2022-09-02T04:38:12;11.70;99.90
57753;DHT22;43583;53.132;6.574;2022-09-02T04:40:42;11.70;99.90
57753;DHT22;43583;53.132;6.574;2022-09-02T04:43:08;11.70;99.90
57753;DHT22;43583;53.132;6.574;2022-09-02T04:45:34;11.70;99.90
57753;DHT22;43583;53.132;6.574;2022-09-02T04:48:00;11.70;99.90
57753;DHT22;43583;53.132;6.574;2022-09-02T04:50:26;11.70;99.90
57753;DHT22;43583;53.132;6.574;2022-09-02T04:52:51;11.70;99.90
57753;DHT22;43583;53.132;6.574;2022-09-02T04:55:17;11.70;99.90
57753;DHT22;43583;53.132;6.574;2022-09-02T04:57:43;11.80;99.90
57753;DHT22;43583;53.132;6.574;2022-09-02T05:00:09;11.70;99.90
57753;DHT22;43583;53.132;6.574;2022-09-02T05:02:35;11.80;99.90
57753;DHT22;43583;53.132;6.574;2022-09-02T05:05:00;11.80;99.90
57753;DHT22;43583;53.132;6.574;2022-09-02T05:07:26;11.80;99.90
57753;DHT22;43583;53.132;6.574;2022-09-02T05:09:56;11.80;99.90
57753;DHT22;43583;53.132;6.574;2022-09-02T05:12:22;11.90;99.90
57753;DHT22;43583;53.132;6.574;2022-09-02T05:14:50;12.00;99.90
57753;DHT22;43583;53.132;6.574;2022-09-02T05:17:15;12.20;99.90
57753;DHT22;43583;53.132;6.574;2022-09-02T05:19:41;12.80;99.90
57753;DHT22;43583;53.132;6.574;2022-09-02T05:22:07;13.50;99.90
57753;DHT22;43583;53.132;6.574;2022-09-02T05:24:32;14.20;99.90
57753;DHT22;43583;53.132;6.574;2022-09-02T05:26:58;14.90;99.90
57753;DHT22;43583;53.132;6.574;2022-09-02T05:29:23;15.20;99.90
57753;DHT22;43583;53.132;6.574;2022-09-02T05:31:50;15.60;99.90
57753;DHT22;43583;53.132;6.574;2022-09-02T05:34:16;15.80;99.90
57753;DHT22;43583;53.132;6.574;2022-09-02T05:36:42;15.90;99.90
57753;DHT22;43583;53.132;6.574;2022-09-02T05:39:08;15.60;99.90
57753;DHT22;43583;53.132;6.574;2022-09-02T05:41:34;15.20;99.90
57753;DHT22;43583;53.132;6.574;2022-09-02T05:44:01;14.90;99.90
57753;DHT22;43583;53.132;6.574;2022-09-02T05:46:28;14.50;99.90
57753;DHT22;43583;53.132;6.574;2022-09-02T05:48:55;14.10;99.90
57753;DHT22;43583;53.132;6.574;2022-09-02T05:54:34;13.70;99.90
57753;DHT22;43583;53.132;6.574;2022-09-02T05:57:04;13.60;99.90
57753;DHT22;43583;53.132;6.574;2022-09-02T05:59:31;13.50;99.90
57753;DHT22;43583;53.132;6.574;2022-09-02T06:02:01;13.40;99.90
57753;DHT22;43583;53.132;6.574;2022-09-02T06:04:26;13.40;99.90
57753;DHT22;43583;53.132;6.574;2022-09-02T06:06:53;13.50;99.90
57753;DHT22;43583;53.132;6.574;2022-09-02T06:09:21;14.20;99.90
57753;DHT22;43583;53.132;6.574;2022-09-02T06:11:47;15.30;99.90
57753;DHT22;43583;53.132;6.574;2022-09-02T06:14:19;16.50;99.90
57753;DHT22;43583;53.132;6.574;2022-09-02T06:16:46;17.70;99.90
57753;DHT22;43583;53.132;6.574;2022-09-02T06:19:12;18.60;99.90
57753;DHT22;43583;53.132;6.574;2022-09-02T06:21:38;19.20;99.90
57753;DHT22;43583;53.132;6.574;2022-09-02T06:24:09;20.00;99.90
57753;DHT22;43583;53.132;6.574;2022-09-02T06:26:35;20.70;99.90
57753;DHT22;43583;53.132;6.574;2022-09-02T06:29:02;21.20;99.10
57753;DHT22;43583;53.132;6.574;2022-09-02T06:31:28;21.50;97.50
57753;DHT22;43583;53.132;6.574;2022-09-02T06:33:55;21.80;95.80
57753;DHT22;43583;53.132;6.574;2022-09-02T06:36:24;22.20;94.50
57753;DHT22;43583;53.132;6.574;2022-09-02T06:38:51;22.50;92.90
57753;DHT22;43583;53.132;6.574;2022-09-02T06:41:20;22.80;91.80
57753;DHT22;43583;53.132;6.574;2022-09-02T06:43:51;23.00;89.20
57753;DHT22;43583;53.132;6.574;2022-09-02T06:46:20;23.30;89.70
57753;DHT22;43583;53.132;6.574;2022-09-02T06:48:46;23.70;87.40
57753;DHT22;43583;53.132;6.574;2022-09-02T06:51:22;24.00;83.20
57753;DHT22;43583;53.132;6.574;2022-09-02T06:53:48;24.00;82.30
57753;DHT22;43583;53.132;6.574;2022-09-02T06:56:14;24.10;81.90
57753;DHT22;43583;53.132;6.574;2022-09-02T06:58:39;24.10;80.10
57753;DHT22;43583;53.132;6.574;2022-09-02T07:01:05;24.30;79.60
57753;DHT22;43583;53.132;6.574;2022-09-02T07:03:32;24.40;76.80
57753;DHT22;43583;53.132;6.574;2022-09-02T07:06:16;24.70;75.70
57753;DHT22;43583;53.132;6.574;2022-09-02T07:08:42;24.80;73.60
57753;DHT22;43583;53.132;6.574;2022-09-02T07:11:20;24.90;76.00
57753;DHT22;43583;53.132;6.574;2022-09-02T07:13:47;25.00;69.50
57753;DHT22;43583;53.132;6.574;2022-09-02T07:16:12;25.00;73.00
57753;DHT22;43583;53.132;6.574;2022-09-02T07:18:38;25.30;72.70
57753;DHT22;43583;53.132;6.574;2022-09-02T07:21:04;25.20;71.60
57753;DHT22;43583;53.132;6.574;2022-09-02T07:23:29;25.50;71.40
57753;DHT22;43583;53.132;6.574;2022-09-02T07:25:55;25.70;70.20
57753;DHT22;43583;53.132;6.574;2022-09-02T07:28:21;25.60;68.80
57753;DHT22;43583;53.132;6.574;2022-09-02T07:30:47;25.70;68.70
57753;DHT22;43583;53.132;6.574;2022-09-02T07:33:14;25.80;67.40
57753;DHT22;43583;53.132;6.574;2022-09-02T07:35:43;25.90;66.90
57753;DHT22;43583;53.132;6.574;2022-09-02T07:38:10;26.10;66.50
57753;DHT22;43583;53.132;6.574;2022-09-02T07:40:38;26.50;65.50
57753;DHT22;43583;53.132;6.574;2022-09-02T07:43:05;26.50;64.40
57753;DHT22;43583;53.132;6.574;2022-09-02T07:45:32;26.60;63.00
57753;DHT22;43583;53.132;6.574;2022-09-02T07:47:58;26.60;63.60
57753;DHT22;43583;53.132;6.574;2022-09-02T07:50:25;26.60;63.40
57753;DHT22;43583;53.132;6.574;2022-09-02T07:52:56;26.40;61.70
57753;DHT22;43583;53.132;6.574;2022-09-02T07:55:22;26.40;62.80
57753;DHT22;43583;53.132;6.574;2022-09-02T07:57:49;26.80;63.30
57753;DHT22;43583;53.132;6.574;2022-09-02T08:00:17;26.60;62.20
57753;DHT22;43583;53.132;6.574;2022-09-02T08:02:44;26.70;62.10
57753;DHT22;43583;53.132;6.574;2022-09-02T08:05:10;27.10;62.10
57753;DHT22;43583;53.132;6.574;2022-09-02T08:07:36;27.30;60.40
57753;DHT22;43583;53.132;6.574;2022-09-02T08:10:03;27.80;60.10
57753;DHT22;43583;53.132;6.574;2022-09-02T08:12:29;27.60;59.70
57753;DHT22;43583;53.132;6.574;2022-09-02T08:14:54;27.80;60.50
57753;DHT22;43583;53.132;6.574;2022-09-02T08:17:22;28.00;59.10
57753;DHT22;43583;53.132;6.574;2022-09-02T08:19:47;28.00;56.90
57753;DHT22;43583;53.132;6.574;2022-09-02T08:22:13;27.90;57.80
57753;DHT22;43583;53.132;6.574;2022-09-02T08:24:39;27.80;57.40
57753;DHT22;43583;53.132;6.574;2022-09-02T08:27:05;27.90;57.50
57753;DHT22;43583;53.132;6.574;2022-09-02T08:29:30;27.80;57.20
57753;DHT22;43583;53.132;6.574;2022-09-02T08:31:56;27.80;56.90
57753;DHT22;43583;53.132;6.574;2022-09-02T08:34:21;27.60;57.20
57753;DHT22;43583;53.132;6.574;2022-09-02T08:36:47;27.60;57.80
57753;DHT22;43583;53.132;6.574;2022-09-02T08:39:13;27.70;57.00
57753;DHT22;43583;53.132;6.574;2022-09-02T08:44:20;28.00;57.50
57753;DHT22;43583;53.132;6.574;2022-09-02T08:46:49;27.70;55.70
57753;DHT22;43583;53.132;6.574;2022-09-02T08:49:39;27.60;55.80
57753;DHT22;43583;53.132;6.574;2022-09-02T08:52:06;27.90;55.30
57753;DHT22;43583;53.132;6.574;2022-09-02T08:54:47;27.60;55.30
57753;DHT22;43583;53.132;6.574;2022-09-02T08:57:15;27.90;55.50
57753;DHT22;43583;53.132;6.574;2022-09-02T08:59:40;28.10;55.10
57753;DHT22;43583;53.132;6.574;2022-09-02T09:02:42;28.10;54.20
57753;DHT22;43583;53.132;6.574;2022-09-02T09:05:27;28.20;54.10
57753;DHT22;43583;53.132;6.574;2022-09-02T09:10:27;28.70;53.80
57753;DHT22;43583;53.132;6.574;2022-09-02T09:13:43;29.00;53.20
57753;DHT22;43583;53.132;6.574;2022-09-02T09:18:38;28.40;53.00
57753;DHT22;43583;53.132;6.574;2022-09-02T09:21:06;28.20;52.00
57753;DHT22;43583;53.132;6.574;2022-09-02T09:23:33;28.10;52.50
57753;DHT22;43583;53.132;6.574;2022-09-02T09:28:51;27.80;52.50
57753;DHT22;43583;53.132;6.574;2022-09-02T09:31:21;27.80;54.60
57753;DHT22;43583;53.132;6.574;2022-09-02T09:34:06;27.90;53.80
57753;DHT22;43583;53.132;6.574;2022-09-02T09:39:28;27.20;52.30
57753;DHT22;43583;53.132;6.574;2022-09-02T09:42:12;26.50;53.30
57753;DHT22;43583;53.132;6.574;2022-09-02T09:44:44;26.40;54.80
57753;DHT22;43583;53.132;6.574;2022-09-02T09:47:18;25.90;55.30
57753;DHT22;43583;53.132;6.574;2022-09-02T09:49:47;25.70;55.80
57753;DHT22;43583;53.132;6.574;2022-09-02T09:52:28;25.30;56.80
57753;DHT22;43583;53.132;6.574;2022-09-02T09:55:17;25.30;55.80
57753;DHT22;43583;53.132;6.574;2022-09-02T09:57:45;25.00;58.00
57753;DHT22;43583;53.132;6.574;2022-09-02T10:00:27;24.90;58.60
57753;DHT22;43583;53.132;6.574;2022-09-02T10:02:59;25.00;59.10
57753;DHT22;43583;53.132;6.574;2022-09-02T10:07:57;25.10;57.90
57753;DHT22;43583;53.132;6.574;2022-09-02T10:10:25;24.90;58.80
57753;DHT22;43583;53.132;6.574;2022-09-02T10:12:55;25.00;58.90
57753;DHT22;43583;53.132;6.574;2022-09-02T10:15:35;24.90;58.60
57753;DHT22;43583;53.132;6.574;2022-09-02T10:18:26;24.90;58.60
57753;DHT22;43583;53.132;6.574;2022-09-02T10:23:40;24.80;58.30
57753;DHT22;43583;53.132;6.574;2022-09-02T10:31:40;24.60;57.70
57753;DHT22;43583;53.132;6.574;2022-09-02T10:40:16;24.60;58.50
57753;DHT22;43583;53.132;6.574;2022-09-02T10:43:04;24.70;57.60
57753;DHT22;43583;53.132;6.574;2022-09-02T10:45:37;24.60;57.90
57753;DHT22;43583;53.132;6.574;2022-09-02T10:48:24;24.60;58.30
57753;DHT22;43583;53.132;6.574;2022-09-02T10:56:46;24.80;58.20
57753;DHT22;43583;53.132;6.574;2022-09-02T10:59:31;24.90;56.90
57753;DHT22;43583;53.132;6.574;2022-09-02T11:05:01;24.70;57.40
57753;DHT22;43583;53.132;6.574;2022-09-02T11:07:36;24.90;60.00
57753;DHT22;43583;53.132;6.574;2022-09-02T11:10:16;24.90;57.20
57753;DHT22;43583;53.132;6.574;2022-09-02T11:12:49;24.80;57.10
57753;DHT22;43583;53.132;6.574;2022-09-02T11:15:36;24.90;57.40
57753;DHT22;43583;53.132;6.574;2022-09-02T11:18:12;25.00;57.20
57753;DHT22;43583;53.132;6.574;2022-09-02T11:21:05;25.00;56.20
57753;DHT22;43583;53.132;6.574;2022-09-02T11:23:48;24.90;56.30
57753;DHT22;43583;53.132;6.574;2022-09-02T11:26:28;24.90;56.40
57753;DHT22;43583;53.132;6.574;2022-09-02T11:29:11;24.90;56.00
57753;DHT22;43583;53.132;6.574;2022-09-02T11:32:03;24.90;56.60
57753;DHT22;43583;53.132;6.574;2022-09-02T11:37:06;24.80;56.80
57753;DHT22;43583;53.132;6.574;2022-09-02T11:42:21;25.10;57.30
57753;DHT22;43583;53.132;6.574;2022-09-02T11:45:07;25.20;56.90
57753;DHT22;43583;53.132;6.574;2022-09-02T11:50:38;25.40;56.20
57753;DHT22;43583;53.132;6.574;2022-09-02T11:53:17;25.60;55.40
57753;DHT22;43583;53.132;6.574;2022-09-02T11:56:13;25.40;55.60
57753;DHT22;43583;53.132;6.574;2022-09-02T11:58:51;25.40;53.40
57753;DHT22;43583;53.132;6.574;2022-09-02T12:01:35;25.40;53.40
57753;DHT22;43583;53.132;6.574;2022-09-02T12:06:29;25.30;53.30
57753;DHT22;43583;53.132;6.574;2022-09-02T12:08:57;25.30;53.80
57753;DHT22;43583;53.132;6.574;2022-09-02T12:11:44;25.30;53.20
57753;DHT22;43583;53.132;6.574;2022-09-02T12:17:01;25.30;52.50
57753;DHT22;43583;53.132;6.574;2022-09-02T12:24:55;25.20;51.90
57753;DHT22;43583;53.132;6.574;2022-09-02T12:27:32;25.30;51.60
57753;DHT22;43583;53.132;6.574;2022-09-02T12:29:59;25.30;52.10
57753;DHT22;43583;53.132;6.574;2022-09-02T12:35:10;25.30;51.00
57753;DHT22;43583;53.132;6.574;2022-09-02T12:37:52;25.20;51.00
57753;DHT22;43583;53.132;6.574;2022-09-02T12:40:25;25.20;51.60
57753;DHT22;43583;53.132;6.574;2022-09-02T12:42:55;25.40;52.40
57753;DHT22;43583;53.132;6.574;2022-09-02T12:45:25;25.40;52.30
57753;DHT22;43583;53.132;6.574;2022-09-02T12:48:15;25.50;52.30
57753;DHT22;43583;53.132;6.574;2022-09-02T12:55:58;25.60;52.60
57753;DHT22;43583;53.132;6.574;2022-09-02T12:58:34;25.50;51.30
57753;DHT22;43583;53.132;6.574;2022-09-02T13:01:28;25.50;51.00
57753;DHT22;43583;53.132;6.574;2022-09-02T13:07:22;25.60;51.00
57753;DHT22;43583;53.132;6.574;2022-09-02T13:15:28;25.60;48.90
57753;DHT22;43583;53.132;6.574;2022-09-02T13:24:24;25.60;50.30
57753;DHT22;43583;53.132;6.574;2022-09-02T13:32:21;25.50;51.40
57753;DHT22;43583;53.132;6.574;2022-09-02T13:34:49;25.40;49.70
57753;DHT22;43583;53.132;6.574;2022-09-02T13:37:36;25.40;50.50
57753;DHT22;43583;53.132;6.574;2022-09-02T13:40:28;25.40;51.10
57753;DHT22;43583;53.132;6.574;2022-09-02T13:42:56;25.50;50.70
57753;DHT22;43583;53.132;6.574;2022-09-02T13:45:25;25.60;50.90
57753;DHT22;43583;53.132;6.574;2022-09-02T13:47:53;25.50;50.90
57753;DHT22;43583;53.132;6.574;2022-09-02T13:50:22;25.40;50.20
57753;DHT22;43583;53.132;6.574;2022-09-02T13:52:55;25.40;50.20
57753;DHT22;43583;53.132;6.574;2022-09-02T13:55:22;25.40;49.80
57753;DHT22;43583;53.132;6.574;2022-09-02T13:58:07;25.50;50.60
57753;DHT22;43583;53.132;6.574;2022-09-02T14:00:44;25.60;50.80
57753;DHT22;43583;53.132;6.574;2022-09-02T14:03:17;25.50;50.60
57753;DHT22;43583;53.132;6.574;2022-09-02T14:05:45;25.50;50.50
57753;DHT22;43583;53.132;6.574;2022-09-02T14:08:14;25.50;51.00
57753;DHT22;43583;53.132;6.574;2022-09-02T14:10:40;25.50;50.90
57753;DHT22;43583;53.132;6.574;2022-09-02T14:13:09;25.40;50.60
57753;DHT22;43583;53.132;6.574;2022-09-02T14:15:35;25.20;50.70
57753;DHT22;43583;53.132;6.574;2022-09-02T14:18:17;25.20;50.00
57753;DHT22;43583;53.132;6.574;2022-09-02T14:23:21;25.10;50.40
57753;DHT22;43583;53.132;6.574;2022-09-02T14:25:53;25.20;51.00
57753;DHT22;43583;53.132;6.574;2022-09-02T14:28:23;25.20;50.80
57753;DHT22;43583;53.132;6.574;2022-09-02T14:31:02;25.20;50.40
57753;DHT22;43583;53.132;6.574;2022-09-02T14:38:55;25.10;50.10
57753;DHT22;43583;53.132;6.574;2022-09-02T14:41:24;25.10;50.20
57753;DHT22;43583;53.132;6.574;2022-09-02T14:44:38;25.00;49.60
57753;DHT22;43583;53.132;6.574;2022-09-02T14:47:06;25.00;50.00
57753;DHT22;43583;53.132;6.574;2022-09-02T14:49:49;25.00;50.40
57753;DHT22;43583;53.132;6.574;2022-09-02T14:52:43;24.90;50.30
57753;DHT22;43583;53.132;6.574;2022-09-02T14:58:47;24.80;50.60
57753;DHT22;43583;53.132;6.574;2022-09-02T15:02:01;24.60;50.30
57753;DHT22;43583;53.132;6.574;2022-09-02T15:04:30;24.40;51.10
57753;DHT22;43583;53.132;6.574;2022-09-02T15:07:11;24.30;51.00
57753;DHT22;43583;53.132;6.574;2022-09-02T15:10:00;24.20;51.20
57753;DHT22;43583;53.132;6.574;2022-09-02T15:12:32;24.20;51.50
57753;DHT22;43583;53.132;6.574;2022-09-02T15:14:58;24.30;51.00
57753;DHT22;43583;53.132;6.574;2022-09-02T15:17:25;24.30;51.20
57753;DHT22;43583;53.132;6.574;2022-09-02T15:19:51;24.40;51.00
57753;DHT22;43583;53.132;6.574;2022-09-02T15:22:19;24.40;51.30
57753;DHT22;43583;53.132;6.574;2022-09-02T15:25:06;24.50;51.50
57753;DHT22;43583;53.132;6.574;2022-09-02T15:27:33;24.60;51.20
57753;DHT22;43583;53.132;6.574;2022-09-02T15:29:59;24.60;51.20
57753;DHT22;43583;53.132;6.574;2022-09-02T15:32:25;24.60;51.00
57753;DHT22;43583;53.132;6.574;2022-09-02T15:34:51;24.50;50.60
57753;DHT22;43583;53.132;6.574;2022-09-02T15:37:20;24.50;51.10
57753;DHT22;43583;53.132;6.574;2022-09-02T15:39:46;24.40;51.00
57753;DHT22;43583;53.132;6.574;2022-09-02T15:42:11;24.40;51.30
57753;DHT22;43583;53.132;6.574;2022-09-02T15:44:37;24.30;51.30
57753;DHT22;43583;53.132;6.574;2022-09-02T15:47:03;24.20;51.30
57753;DHT22;43583;53.132;6.574;2022-09-02T15:49:28;24.20;52.10
57753;DHT22;43583;53.132;6.574;2022-09-02T15:51:55;24.10;51.80
57753;DHT22;43583;53.132;6.574;2022-09-02T15:54:22;24.10;51.70
57753;DHT22;43583;53.132;6.574;2022-09-02T15:56:48;24.00;52.30
57753;DHT22;43583;53.132;6.574;2022-09-02T15:59:18;23.90;52.10
57753;DHT22;43583;53.132;6.574;2022-09-02T16:01:47;23.90;52.50
57753;DHT22;43583;53.132;6.574;2022-09-02T16:04:14;23.80;52.70
57753;DHT22;43583;53.132;6.574;2022-09-02T16:06:42;23.80;52.80
57753;DHT22;43583;53.132;6.574;2022-09-02T16:09:10;23.70;54.20
57753;DHT22;43583;53.132;6.574;2022-09-02T16:11:37;23.70;53.90
57753;DHT22;43583;53.132;6.574;2022-09-02T16:14:27;23.70;54.10
57753;DHT22;43583;53.132;6.574;2022-09-02T16:16:53;23.60;54.30
57753;DHT22;43583;53.132;6.574;2022-09-02T16:19:21;23.50;54.20
57753;DHT22;43583;53.132;6.574;2022-09-02T16:21:49;23.50;54.50
57753;DHT22;43583;53.132;6.574;2022-09-02T16:24:20;23.40;54.70
57753;DHT22;43583;53.132;6.574;2022-09-02T16:26:47;23.30;55.00
57753;DHT22;43583;53.132;6.574;2022-09-02T16:29:14;23.30;55.30
57753;DHT22;43583;53.132;6.574;2022-09-02T16:31:44;23.20;55.80
57753;DHT22;43583;53.132;6.574;2022-09-02T16:34:33;23.10;55.90
57753;DHT22;43583;53.132;6.574;2022-09-02T16:37:02;23.00;56.30
57753;DHT22;43583;53.132;6.574;2022-09-02T16:39:59;23.00;56.50
57753;DHT22;43583;53.132;6.574;2022-09-02T16:42:59;22.90;56.70
57753;DHT22;43583;53.132;6.574;2022-09-02T16:45:52;22.90;57.10
57753;DHT22;43583;53.132;6.574;2022-09-02T16:48:40;22.80;57.10
57753;DHT22;43583;53.132;6.574;2022-09-02T16:51:45;22.80;57.40
57753;DHT22;43583;53.132;6.574;2022-09-02T16:54:55;22.80;57.90
57753;DHT22;43583;53.132;6.574;2022-09-02T16:57:39;22.80;58.20
57753;DHT22;43583;53.132;6.574;2022-09-02T17:00:09;22.70;58.30
57753;DHT22;43583;53.132;6.574;2022-09-02T17:02:56;22.70;58.40
57753;DHT22;43583;53.132;6.574;2022-09-02T17:05:46;22.70;58.90
57753;DHT22;43583;53.132;6.574;2022-09-02T17:08:56;22.60;58.60
57753;DHT22;43583;53.132;6.574;2022-09-02T17:11:36;22.60;58.60
57753;DHT22;43583;53.132;6.574;2022-09-02T17:14:10;22.60;58.40
57753;DHT22;43583;53.132;6.574;2022-09-02T17:17:23;22.60;58.40
57753;DHT22;43583;53.132;6.574;2022-09-02T17:27:35;22.40;59.20
57753;DHT22;43583;53.132;6.574;2022-09-02T17:30:42;22.20;59.80
57753;DHT22;43583;53.132;6.574;2022-09-02T17:34:08;22.10;59.40
57753;DHT22;43583;53.132;6.574;2022-09-02T17:49:16;21.70;60.70
57753;DHT22;43583;53.132;6.574;2022-09-02T17:52:21;21.60;61.00
57753;DHT22;43583;53.132;6.574;2022-09-02T17:55:25;21.50;61.20
57753;DHT22;43583;53.132;6.574;2022-09-02T18:06:08;21.20;61.70
57753;DHT22;43583;53.132;6.574;2022-09-02T18:08:54;21.10;61.70
57753;DHT22;43583;53.132;6.574;2022-09-02T18:11:20;21.00;62.40